Time;durP1;ratioP1;P1;durP2;ratioP2;P2;SDS_P1;SDS_P2;PMS_P1;PMS_P2;Temp;Humidity;BMP_temperature;BMP_pressure;BME280_temperature;BME280_humidity;BME280_pressure;Samples;Min_cycle;Max_cycle;Signal;HPM_P1;HPM_P2
2022/02/19 00:02:11;;;;;;;27.35;16.40;;;;;;;10.55;67.56;101174.72;5044573;27;102409;-52
2022/02/19 00:04:37;;;;;;;25.40;17.45;;;;;;;10.55;68.14;101173.91;5046407;27;102669;-52
2022/02/19 00:07:04;;;;;;;24.88;16.92;;;;;;;10.55;67.81;101165.75;5038830;27;102705;-53
2022/02/19 00:09:31;;;;;;;23.30;15.95;;;;;;;10.55;67.77;101168.47;5048582;27;103961;-53
2022/02/19 00:11:58;;;;;;;24.65;17.63;;;;;;;10.54;68.02;101164.94;5044624;27;103266;-53
2022/02/19 00:14:24;;;;;;;23.83;16.25;;;;;;;10.55;68.06;101176.63;5032528;27;102233;-53
2022/02/19 00:16:51;;;;;;;23.33;15.88;;;;;;;10.54;67.87;101177.72;5058255;27;102719;-53
2022/02/19 00:19:19;;;;;;;23.02;16.33;;;;;;;10.54;67.54;101183.97;5057653;27;103905;-52
2022/02/19 00:21:45;;;;;;;23.02;14.98;;;;;;;10.54;67.80;101166.84;5049796;27;102464;-53
2022/02/19 00:24:12;;;;;;;22.25;15.25;;;;;;;10.54;68.18;101172.28;5042138;27;101953;-53
2022/02/19 00:26:39;;;;;;;23.80;15.65;;;;;;;10.54;68.27;101172.28;5030769;27;102291;-53
2022/02/19 00:29:07;;;;;;;22.20;15.23;;;;;;;10.55;67.81;101179.34;5029967;27;103900;-53
2022/02/19 00:31:33;;;;;;;23.20;16.33;;;;;;;10.53;67.51;101181.50;5033294;27;102570;-53
2022/02/19 00:34:00;;;;;;;20.10;14.57;;;;;;;10.54;67.93;101188.59;5045935;27;102204;-52
2022/02/19 00:36:26;;;;;;;24.15;16.17;;;;;;;10.54;67.63;101189.41;5045683;27;102593;-53
2022/02/19 00:38:52;;;;;;;20.25;15.13;;;;;;;10.54;67.79;101191.31;5050948;27;104180;-53
2022/02/19 00:41:19;;;;;;;22.05;14.35;;;;;;;10.53;68.18;101186.94;5055994;27;102795;-53
2022/02/19 00:43:46;;;;;;;22.48;16.45;;;;;;;10.53;67.78;101192.38;5040914;27;104722;-53
2022/02/19 00:46:13;;;;;;;22.77;15.90;;;;;;;10.53;68.22;101190.50;5039280;27;102600;-53
2022/02/19 00:48:39;;;;;;;25.20;16.30;;;;;;;10.53;67.75;101184.22;5043093;27;104063;-53
2022/02/19 00:51:05;;;;;;;21.73;15.75;;;;;;;10.53;67.75;101181.50;5045142;27;102790;-53
2022/02/19 00:53:32;;;;;;;22.40;16.05;;;;;;;10.53;67.53;101192.38;5034812;27;102710;-53
2022/02/19 00:55:58;;;;;;;24.23;15.95;;;;;;;10.52;67.73;101185.31;5026738;27;102241;-53
2022/02/19 00:58:24;;;;;;;23.05;16.30;;;;;;;10.53;67.86;101197.81;5022945;27;104016;-53
2022/02/19 01:00:52;;;;;;;23.08;15.45;;;;;;;10.52;68.05;101190.75;5026628;27;102232;-53
2022/02/19 01:03:18;;;;;;;23.00;16.10;;;;;;;10.52;67.71;101188.84;5026281;27;102545;-54
2022/02/19 01:05:44;;;;;;;20.48;15.05;;;;;;;10.52;67.68;101186.13;5028998;27;102262;-53
2022/02/19 01:08:11;;;;;;;22.83;15.73;;;;;;;10.53;67.72;101186.94;5024411;27;103847;-53
2022/02/19 01:10:38;;;;;;;22.20;16.35;;;;;;;10.53;68.04;101173.34;5029095;27;102327;-53
2022/02/19 01:13:04;;;;;;;22.55;16.55;;;;;;;10.52;68.19;101185.31;5026082;27;102236;-53
2022/02/19 01:15:31;;;;;;;22.85;16.17;;;;;;;10.52;67.75;101174.41;5030116;27;102233;-53
2022/02/19 01:18:00;;;;;;;24.65;16.13;;;;;;;10.51;67.77;101170.06;5029158;27;103926;-53
2022/02/19 01:20:26;;;;;;;21.33;16.02;;;;;;;10.51;68.07;101165.44;5028270;27;102258;-53
2022/02/19 01:22:53;;;;;;;24.85;16.17;;;;;;;10.52;68.13;101158.09;5037171;27;102642;-53
2022/02/19 01:25:19;;;;;;;22.17;16.40;;;;;;;10.51;67.58;101165.44;5050602;27;102613;-53
2022/02/19 01:27:45;;;;;;;22.50;16.90;;;;;;;10.52;67.97;101167.06;5034866;27;103876;-53
2022/02/19 01:30:11;;;;;;;19.77;15.75;;;;;;;10.51;68.16;101153.75;5041012;27;102287;-53
2022/02/19 01:32:38;;;;;;;21.67;15.63;;;;;;;10.52;68.22;101168.97;5046290;27;102300;-53
2022/02/19 01:35:06;;;;;;;21.05;15.95;;;;;;;10.52;67.68;101163.53;5050764;27;102764;-53
2022/02/19 01:37:32;;;;;;;22.23;17.02;;;;;;;10.51;67.76;101162.72;5049819;27;103895;-53
2022/02/19 01:39:59;;;;;;;21.17;15.52;;;;;;;10.51;67.82;101161.91;5048978;27;103826;-53
2022/02/19 01:42:27;;;;;;;19.20;15.18;;;;;;;10.52;67.85;101175.22;5030728;27;102725;-53
2022/02/19 01:44:54;;;;;;;19.83;15.30;;;;;;;10.51;68.16;101168.16;5032008;27;102380;-53
2022/02/19 01:47:21;;;;;;;20.27;15.93;;;;;;;10.52;67.77;101168.97;5030176;27;102627;-53
2022/02/19 01:49:47;;;;;;;20.55;15.95;;;;;;;10.52;67.70;101169.78;5029452;27;102178;-53
2022/02/19 01:52:16;;;;;;;21.08;15.57;;;;;;;10.51;67.85;101165.44;5031958;27;102236;-53
2022/02/19 01:54:43;;;;;;;22.63;15.82;;;;;;;10.52;68.15;101168.97;5021208;27;102126;-52
2022/02/19 01:57:10;;;;;;;19.20;15.18;;;;;;;10.51;67.76;101170.06;5017645;27;104040;-53
2022/02/19 01:59:39;;;;;;;19.92;15.45;;;;;;;10.51;67.81;101168.16;5035147;27;102165;-52
2022/02/19 02:02:05;;;;;;;21.27;15.80;;;;;;;10.51;68.22;101161.91;5023097;27;102365;-53
2022/02/19 02:04:33;;;;;;;20.60;14.32;;;;;;;10.52;68.37;101163.53;5015349;27;102201;-53
2022/02/19 02:07:02;;;;;;;19.20;15.10;;;;;;;10.51;68.07;101161.91;5034737;27;103624;-53
2022/02/19 02:09:30;;;;;;;20.30;15.77;;;;;;;10.51;67.63;101167.34;5022236;27;102381;-53
2022/02/19 02:11:56;;;;;;;19.60;14.95;;;;;;;10.51;68.21;101168.16;5026198;27;102952;-52
2022/02/19 02:14:23;;;;;;;20.10;15.93;;;;;;;10.51;67.78;101167.34;5045194;27;102482;-53
2022/02/19 02:16:49;;;;;;;19.10;14.30;;;;;;;10.51;67.70;101168.16;5025003;27;103760;-53
2022/02/19 02:19:15;;;;;;;19.63;14.52;;;;;;;10.52;68.25;101163.53;5047343;27;102243;-53
2022/02/19 02:21:43;;;;;;;20.88;15.57;;;;;;;10.50;67.57;101154.81;5046416;27;102451;-53
2022/02/19 02:24:09;;;;;;;19.35;14.60;;;;;;;10.50;67.72;101160.28;5035994;27;102596;-53
2022/02/19 02:26:37;;;;;;;18.42;14.68;;;;;;;10.50;68.17;101161.09;5022595;27;103727;-53
2022/02/19 02:29:04;;;;;;;20.00;15.88;;;;;;;10.50;67.94;101166.53;5030471;27;102107;-53
2022/02/19 02:31:30;;;;;;;21.50;15.45;;;;;;;10.49;67.87;101164.88;5023882;27;102213;-53
2022/02/19 02:33:58;;;;;;;19.13;14.32;;;;;;;10.51;68.14;101172.78;5028152;27;103090;-53
2022/02/19 02:36:25;;;;;;;17.25;13.63;;;;;;;10.50;67.69;101163.81;5028093;27;104079;-53
2022/02/19 02:38:53;;;;;;;18.40;14.18;;;;;;;10.50;67.94;101182.03;5028229;27;103478;-53
2022/02/19 02:41:23;;;;;;;19.02;14.27;;;;;;;10.50;67.96;101176.59;5025740;27;102420;-53
2022/02/19 02:43:51;;;;;;;17.75;13.90;;;;;;;10.50;67.79;101171.16;5029362;27;102802;-53
2022/02/19 02:46:17;;;;;;;17.95;13.68;;;;;;;10.49;67.92;101174.94;5029932;27;103851;-53
2022/02/19 02:48:43;;;;;;;18.85;14.20;;;;;;;10.50;67.98;101168.44;5036041;27;102183;-53
2022/02/19 02:51:11;;;;;;;14.98;12.73;;;;;;;10.49;67.98;101170.31;5016122;27;102650;-52
2022/02/19 02:53:37;;;;;;;18.20;13.77;;;;;;;10.49;67.68;101158.59;5032870;27;102208;-53
2022/02/19 02:56:06;;;;;;;17.10;13.85;;;;;;;10.48;68.07;101162.41;5028418;27;104033;-53
2022/02/19 02:58:32;;;;;;;17.88;13.60;;;;;;;10.49;67.68;101153.97;5037911;27;102223;-53
2022/02/19 03:00:58;;;;;;;18.10;13.95;;;;;;;10.50;67.95;101152.09;5026454;27;104839;-53
2022/02/19 03:03:25;;;;;;;16.42;13.18;;;;;;;10.49;68.46;101148.53;5028228;27;102779;-52
2022/02/19 03:05:51;;;;;;;15.10;13.02;;;;;;;10.49;68.08;101148.53;5019896;27;103837;-53
2022/02/19 03:08:18;;;;;;;19.33;13.88;;;;;;;10.49;67.65;101159.44;5029409;27;102457;-53
2022/02/19 03:10:44;;;;;;;15.57;13.10;;;;;;;10.49;67.95;101142.28;5026480;27;102251;-52
2022/02/19 03:13:12;;;;;;;17.02;13.15;;;;;;;10.47;68.21;101147.19;5032562;27;102558;-52
2022/02/19 03:15:38;;;;;;;17.17;13.10;;;;;;;10.49;67.69;101153.16;5027160;27;103791;-52
2022/02/19 03:18:05;;;;;;;16.05;13.07;;;;;;;10.48;67.58;101152.34;5025728;27;102074;-51
2022/02/19 03:20:39;;;;;;;16.67;12.75;;;;;;;10.49;67.74;101158.59;5017037;27;104507;-52
2022/02/19 03:23:06;;;;;;;16.35;12.68;;;;;;;10.48;68.14;101154.25;5026527;27;102170;-53
2022/02/19 03:25:33;;;;;;;15.75;13.02;;;;;;;10.48;68.12;101159.69;5010564;28;103940;-52
2022/02/19 03:27:59;;;;;;;15.32;12.98;;;;;;;10.48;67.70;101168.69;5027633;27;102242;-52
2022/02/19 03:30:27;;;;;;;17.90;13.18;;;;;;;10.48;67.70;101168.69;5057430;27;102584;-52
2022/02/19 03:32:54;;;;;;;15.52;12.27;;;;;;;10.48;67.47;101174.13;5056232;27;102600;-52
2022/02/19 03:35:20;;;;;;;16.45;12.70;;;;;;;10.47;67.79;101164.31;5052611;27;103837;-52
2022/02/19 03:37:46;;;;;;;19.27;13.20;;;;;;;10.49;68.23;101161.34;5047396;27;102275;-52
2022/02/19 03:40:13;;;;;;;15.43;12.55;;;;;;;10.48;68.32;101162.41;5050497;27;102380;-52
2022/02/19 03:42:43;;;;;;;15.00;12.63;;;;;;;10.47;68.11;101158.88;5046461;27;102647;-52
2022/02/19 03:45:11;;;;;;;17.02;12.43;;;;;;;10.48;68.06;101157.78;5051432;27;103863;-52
2022/02/19 03:47:41;;;;;;;15.60;12.47;;;;;;;10.47;67.49;101163.50;5061690;27;102932;-52
2022/02/19 03:50:08;;;;;;;17.17;12.55;;;;;;;10.47;68.09;101166.22;5050537;27;102445;-51
2022/02/19 03:52:38;;;;;;;14.18;11.65;;;;;;;10.47;68.26;101171.66;5034409;27;103054;-52
2022/02/19 03:55:05;;;;;;;15.25;11.68;;;;;;;10.46;68.12;101170.84;5032109;27;103928;-50
2022/02/19 03:57:31;;;;;;;17.17;12.27;;;;;;;10.46;67.85;101159.16;5036811;27;102525;-52
2022/02/19 03:59:58;;;;;;;14.63;12.63;;;;;;;10.46;67.60;101159.97;5031561;27;102505;-52
2022/02/19 04:02:24;;;;;;;14.25;12.73;;;;;;;10.46;67.82;101164.59;5030317;27;102213;-52
2022/02/19 04:04:52;;;;;;;15.60;12.75;;;;;;;10.45;67.98;101163.75;5024693;27;103669;-52
2022/02/19 04:07:18;;;;;;;17.33;12.70;;;;;;;10.46;67.78;101167.31;5028906;27;102171;-52
2022/02/19 04:09:44;;;;;;;16.30;12.77;;;;;;;10.45;67.66;101163.75;5021887;27;102167;-52
2022/02/19 04:12:11;;;;;;;16.48;12.73;;;;;;;10.45;67.60;101174.63;5036642;27;102690;-51
2022/02/19 04:14:37;;;;;;;14.70;12.50;;;;;;;10.47;67.78;101174.41;5034960;27;103712;-52
2022/02/19 04:17:05;;;;;;;15.57;12.57;;;;;;;10.47;68.07;101171.66;5016609;27;102506;-52
2022/02/19 04:19:31;;;;;;;16.35;12.25;;;;;;;10.46;67.72;101170.03;5026353;27;102469;-51
2022/02/19 04:22:04;;;;;;;16.08;11.60;;;;;;;10.46;67.47;101170.84;5028820;27;102412;-52
2022/02/19 04:24:32;;;;;;;14.80;11.45;;;;;;;10.46;67.48;101165.41;5019802;27;104655;-52
2022/02/19 04:26:58;;;;;;;15.82;12.02;;;;;;;10.46;67.93;101172.75;5030483;27;102149;-53
2022/02/19 04:29:25;;;;;;;18.58;12.32;;;;;;;10.46;67.64;101178.19;5026317;27;102583;-52
2022/02/19 04:31:55;;;;;;;15.73;12.30;;;;;;;10.45;68.07;101185.50;5028270;27;102124;-52
2022/02/19 04:34:21;;;;;;;14.45;11.05;;;;;;;10.45;68.05;101195.59;5028131;27;104343;-52
2022/02/19 04:36:48;;;;;;;14.25;11.57;;;;;;;10.45;67.69;101196.41;5029539;27;102417;-52
2022/02/19 04:39:16;;;;;;;13.93;11.25;;;;;;;10.46;68.40;101203.50;5025905;27;102481;-52
2022/02/19 04:41:43;;;;;;;14.82;11.45;;;;;;;10.45;67.59;101201.03;5028842;27;102581;-52
2022/02/19 04:44:09;;;;;;;14.63;11.18;;;;;;;10.46;67.99;101208.13;5035371;27;104147;-52
2022/02/19 04:46:36;;;;;;;13.48;10.98;;;;;;;10.46;67.82;101202.69;5024534;27;102278;-52
2022/02/19 04:49:02;;;;;;;12.95;10.70;;;;;;;10.45;67.76;101198.31;5037591;27;102546;-52
2022/02/19 04:51:29;;;;;;;12.60;10.63;;;;;;;10.45;67.73;101201.84;5020872;27;102947;-52
2022/02/19 04:53:55;;;;;;;13.20;10.40;;;;;;;10.45;67.64;101207.28;5026822;27;103907;-53
2022/02/19 04:56:23;;;;;;;14.65;10.80;;;;;;;10.44;67.74;101213.00;5031937;27;102980;-52
2022/02/19 04:58:49;;;;;;;13.85;10.35;;;;;;;10.46;67.63;101216.28;5027574;27;103169;-52
2022/02/19 05:01:15;;;;;;;12.73;10.02;;;;;;;10.46;67.47;101216.28;5049245;27;102317;-53
2022/02/19 05:03:41;;;;;;;12.05;10.27;;;;;;;10.45;67.81;101217.34;5049258;27;107782;-53
2022/02/19 05:06:13;;;;;;;11.68;10.15;;;;;;;10.45;67.59;101225.50;5042926;27;102640;-52
2022/02/19 05:08:39;;;;;;;12.88;10.07;;;;;;;10.46;68.08;101219.03;5047833;27;102163;-52
2022/02/19 05:11:06;;;;;;;12.40;10.00;;;;;;;10.45;67.73;101211.91;5051124;27;102137;-52
2022/02/19 05:13:34;;;;;;;13.40;10.02;;;;;;;10.45;67.63;101211.91;5048231;27;104125;-52
2022/02/19 05:16:00;;;;;;;14.30;11.05;;;;;;;10.45;68.01;101214.63;5046949;27;102265;-52
2022/02/19 05:18:26;;;;;;;13.20;10.70;;;;;;;10.46;67.99;101213.56;5046212;27;102779;-52
2022/02/19 05:20:53;;;;;;;12.65;10.35;;;;;;;10.46;67.56;101221.75;5051024;27;102918;-52
2022/02/19 05:23:23;;;;;;;11.95;9.90;;;;;;;10.47;68.14;101226.09;5035982;27;104348;-52
2022/02/19 05:25:49;;;;;;;12.88;9.23;;;;;;;10.47;67.82;101216.03;5047360;27;102309;-52
2022/02/19 05:28:15;;;;;;;12.77;9.90;;;;;;;10.48;67.90;101222.28;5044763;27;102545;-52
2022/02/19 05:30:43;;;;;;;11.05;9.63;;;;;;;10.49;68.20;101221.19;5042117;27;102245;-52
2022/02/19 05:33:09;;;;;;;14.90;10.20;;;;;;;10.50;68.60;101203.81;5038814;27;106578;-52
2022/02/19 05:35:36;;;;;;;14.73;10.10;;;;;;;10.51;68.73;101210.88;5043585;27;102004;-52
2022/02/19 05:38:02;;;;;;;13.27;10.15;;;;;;;10.52;68.75;101212.53;5058214;27;102318;-51
2022/02/19 05:40:29;;;;;;;14.48;9.73;;;;;;;10.52;68.97;101218.78;5062726;27;102402;-52
2022/02/19 05:42:55;;;;;;;13.60;10.75;;;;;;;10.53;68.95;101209.56;5037161;27;103892;-51
2022/02/19 05:45:21;;;;;;;12.63;9.73;;;;;;;10.55;68.52;101206.56;5038084;27;102158;-51
2022/02/19 05:47:49;;;;;;;10.60;9.00;;;;;;;10.54;68.64;101202.22;5036630;27;102508;-52
2022/02/19 05:50:16;;;;;;;12.50;10.05;;;;;;;10.55;68.41;101190.25;5041373;27;102870;-52
2022/02/19 05:52:42;;;;;;;13.02;9.38;;;;;;;10.54;68.37;101191.31;5041628;27;103953;-52
2022/02/19 05:55:09;;;;;;;11.30;9.05;;;;;;;10.54;68.43;101188.59;5043264;27;102538;-52
2022/02/19 05:57:40;;;;;;;13.25;9.05;;;;;;;10.54;68.38;101200.31;5056283;27;102074;-52
2022/02/19 06:00:08;;;;;;;11.93;9.35;;;;;;;10.54;68.34;101196.78;5056296;27;103576;-52
2022/02/19 06:02:35;;;;;;;10.82;8.82;;;;;;;10.53;68.30;101200.53;5048798;27;103801;-52
2022/02/19 06:05:03;;;;;;;12.35;9.52;;;;;;;10.54;68.90;101199.50;5052986;27;102569;-52
2022/02/19 06:07:30;;;;;;;10.68;8.35;;;;;;;10.54;68.27;101204.94;5056890;27;102964;-52
2022/02/19 06:09:56;;;;;;;9.73;8.73;;;;;;;10.53;68.27;101203.25;5049271;27;102162;-52
2022/02/19 06:12:22;;;;;;;10.20;8.27;;;;;;;10.54;68.28;101218.53;5043058;27;103951;-52
2022/02/19 06:14:49;;;;;;;12.10;8.60;;;;;;;10.54;68.37;101232.16;5041264;27;102785;-52
2022/02/19 06:17:16;;;;;;;11.77;8.70;;;;;;;10.54;68.37;101234.88;5059203;27;102561;-52
2022/02/19 06:19:42;;;;;;;10.15;8.55;;;;;;;10.52;68.13;101239.72;5040567;27;102747;-52
2022/02/19 06:22:10;;;;;;;10.23;8.27;;;;;;;10.53;68.59;101227.75;5046348;27;103941;-52
2022/02/19 06:24:38;;;;;;;9.43;7.60;;;;;;;10.52;68.51;101226.94;5040116;27;103801;-52
2022/02/19 06:27:05;;;;;;;12.82;8.45;;;;;;;10.52;68.06;101229.66;5043508;27;102149;-52
2022/02/19 06:29:31;;;;;;;9.73;8.45;;;;;;;10.53;68.45;101230.47;5049563;27;102952;-53
2022/02/19 06:31:58;;;;;;;9.98;7.88;;;;;;;10.52;68.39;101231.56;5040662;27;103838;-52
2022/02/19 06:34:24;;;;;;;9.95;7.97;;;;;;;10.52;67.68;101242.47;5048333;27;102606;-52
2022/02/19 06:36:50;;;;;;;9.20;7.93;;;;;;;10.52;68.54;101245.19;5046747;27;102103;-52
2022/02/19 06:39:18;;;;;;;9.32;7.30;;;;;;;10.52;68.11;101235.09;5047025;27;102877;-52
2022/02/19 06:41:44;;;;;;;9.40;7.60;;;;;;;10.51;68.40;101229.94;5030052;27;104205;-52
2022/02/19 06:44:10;;;;;;;8.55;7.47;;;;;;;10.51;67.82;101221.78;5029172;27;102582;-52
2022/02/19 06:46:37;;;;;;;10.27;7.78;;;;;;;10.51;67.82;101222.59;5049071;27;102388;-52
2022/02/19 06:49:04;;;;;;;9.75;7.95;;;;;;;10.52;67.91;101209.78;5058678;27;102837;-52
2022/02/19 06:51:31;;;;;;;8.60;7.65;;;;;;;10.52;70.74;101207.06;5044849;27;103850;-52
2022/02/19 06:53:58;;;;;;;8.85;6.70;;;;;;;10.52;67.91;101204.34;5044962;27;102196;-52
2022/02/19 06:56:27;;;;;;;9.20;7.13;;;;;;;10.52;68.07;101201.63;5037254;27;104081;-52
2022/02/19 06:58:59;;;;;;;;;;;;;;;10.53;68.02;101197.81;5039497;27;102562;-53
2022/02/19 07:01:26;;;;;;;7.97;7.07;;;;;;;10.52;68.43;101186.13;5030234;27;103915;-52
2022/02/19 07:03:56;;;;;;;7.90;6.75;;;;;;;10.53;67.91;101181.50;5044625;27;102023;-53
2022/02/19 07:06:23;;;;;;;9.05;6.60;;;;;;;10.52;67.93;101169.78;5047797;27;102388;-52
2022/02/19 07:08:50;;;;;;;9.52;7.30;;;;;;;10.53;68.18;101157.00;5038136;27;106787;-52
2022/02/19 07:11:16;;;;;;;8.05;6.43;;;;;;;10.53;67.76;101170.63;5043782;27;104034;-52
2022/02/19 07:13:44;;;;;;;8.98;6.72;;;;;;;10.52;68.00;101168.97;5028104;27;102769;-52
2022/02/19 07:16:11;;;;;;;8.38;5.95;;;;;;;10.52;68.06;101179.88;5022990;27;102257;-52
2022/02/19 07:18:37;;;;;;;6.65;5.88;;;;;;;10.52;67.99;101179.88;5028034;27;102820;-52
2022/02/19 07:21:04;;;;;;;9.18;6.22;;;;;;;10.53;67.98;101159.72;5039913;27;103721;-52
2022/02/19 07:23:31;;;;;;;10.13;6.30;;;;;;;10.54;67.58;101150.50;5048603;27;102121;-52
2022/02/19 07:25:57;;;;;;;40.50;7.22;;;;;;;10.55;67.69;101152.13;5049701;27;102314;-52
2022/02/19 07:28:23;;;;;;;7.95;5.60;;;;;;;10.55;67.43;101149.41;5031710;27;102426;-52
2022/02/19 07:30:51;;;;;;;8.18;5.20;;;;;;;10.55;67.41;101141.25;5022509;27;103891;-52
2022/02/19 07:33:18;;;;;;;6.28;4.95;;;;;;;10.55;67.17;101130.34;5025192;27;102383;-52
2022/02/19 07:35:44;;;;;;;6.80;4.97;;;;;;;10.56;66.90;101115.66;5023861;27;102084;-52
2022/02/19 07:38:10;;;;;;;6.18;4.72;;;;;;;10.55;66.95;101103.16;5019203;27;102770;-52
2022/02/19 07:40:37;;;;;;;5.95;4.63;;;;;;;10.56;66.73;101088.44;5042087;27;104120;-52
2022/02/19 07:43:03;;;;;;;6.15;5.20;;;;;;;10.56;67.20;101094.72;5040546;27;102591;-52
2022/02/19 07:45:29;;;;;;;5.97;4.45;;;;;;;10.56;67.25;101088.44;5049734;27;102303;-52
2022/02/19 07:47:57;;;;;;;5.47;4.53;;;;;;;10.56;67.17;101093.88;5037305;27;102186;-52
2022/02/19 07:58:38;;;;;;;6.15;4.68;;;;;;;10.58;67.00;101118.97;5023256;27;103965;-52
2022/02/19 08:01:07;;;;;;;5.95;4.10;;;;;;;10.59;66.51;101126.84;5029013;27;103390;-52
2022/02/19 08:03:35;;;;;;;7.03;4.47;;;;;;;10.61;66.31;101140.22;5021065;27;102349;-52
2022/02/19 08:06:04;;;;;;;6.25;3.95;;;;;;;10.61;66.62;101133.97;5026942;27;102342;-52
2022/02/19 08:08:31;;;;;;;7.72;4.07;;;;;;;10.62;66.23;101133.69;5026100;27;102777;-52
2022/02/19 08:10:57;;;;;;;6.72;3.72;;;;;;;10.62;66.45;101128.25;5030110;27;104233;-52
2022/02/19 08:13:24;;;;;;;6.15;3.80;;;;;;;10.63;66.55;101131.78;5027713;27;102134;-52
2022/02/19 08:15:50;;;;;;;4.40;3.60;;;;;;;10.65;66.29;101135.88;5028778;27;103555;-53
2022/02/19 08:18:18;;;;;;;5.70;3.78;;;;;;;10.65;65.86;101124.19;5030252;27;102499;-52
2022/02/19 08:20:47;;;;;;;7.20;4.00;;;;;;;10.66;65.71;101134.78;5028404;27;103992;-52
2022/02/19 08:23:14;;;;;;;;;;;;;;;10.66;66.42;101123.09;5017901;27;102831;-52
2022/02/19 08:25:41;;;;;;;5.38;3.47;;;;;;;10.66;65.97;101126.63;5029697;27;102160;-52
2022/02/19 08:28:08;;;;;;;4.40;3.30;;;;;;;10.68;65.84;101145.44;5036012;27;102180;-52
2022/02/19 08:30:39;;;;;;;4.78;3.33;;;;;;;10.67;66.16;101138.34;5026436;27;103920;-52
2022/02/19 08:33:07;;;;;;;4.03;3.20;;;;;;;10.69;65.74;101147.06;5034392;27;102238;-52
2022/02/19 08:35:36;;;;;;;4.35;2.95;;;;;;;10.69;65.80;101147.88;5030341;27;102308;-52
2022/02/19 08:38:04;;;;;;;5.82;3.35;;;;;;;10.70;65.54;101146.78;5022143;27;102165;-52
2022/02/19 08:40:31;;;;;;;4.47;3.23;;;;;;;10.70;65.55;101154.97;5038548;27;104210;-52
2022/02/19 08:42:57;;;;;;;4.60;2.95;;;;;;;10.70;65.88;101144.06;5041330;27;102652;-53
2022/02/19 08:45:23;;;;;;;4.72;3.20;;;;;;;10.72;65.73;101158.25;5045863;27;102102;-52
2022/02/19 08:47:53;;;;;;;4.13;2.95;;;;;;;10.71;65.03;101151.19;5041415;27;102174;-52
2022/02/19 08:50:20;;;;;;;4.93;2.90;;;;;;;10.72;65.44;101157.44;5041281;27;103717;-52
2022/02/19 08:52:50;;;;;;;4.95;3.00;;;;;;;10.72;65.42;101150.09;5037742;27;102141;-52
2022/02/19 08:55:18;;;;;;;3.40;2.90;;;;;;;10.74;65.66;101149.81;5043845;27;102555;-52
2022/02/19 08:57:45;;;;;;;3.55;2.53;;;;;;;10.75;65.81;101143.31;5012187;27;102259;-52
2022/02/19 09:00:13;;;;;;;4.90;3.03;;;;;;;10.74;65.28;101145.19;5041863;27;103912;-52
2022/02/19 09:02:40;;;;;;;4.60;2.73;;;;;;;10.75;65.59;101138.69;5048278;27;102268;-52
2022/02/19 09:05:09;;;;;;;4.15;2.95;;;;;;;10.74;65.84;101137.03;5047653;27;102251;-52
2022/02/19 09:07:36;;;;;;;5.38;2.72;;;;;;;10.76;65.52;101147.66;5046209;27;102628;-52
2022/02/19 09:10:05;;;;;;;;;;;;;;;10.76;65.41;101143.03;5043655;27;104095;-52
2022/02/19 09:12:34;;;;;;;3.88;2.75;;;;;;;10.77;65.41;101139.22;5047417;27;102748;-52
2022/02/19 09:15:00;;;;;;;2.80;2.15;;;;;;;10.77;65.06;101132.97;5038701;27;104030;-52
2022/02/19 09:17:28;;;;;;;3.97;2.65;;;;;;;10.77;65.23;101116.63;5040102;27;102734;-53
2022/02/19 09:19:54;;;;;;;3.22;2.28;;;;;;;10.77;65.38;101114.72;5018421;27;103864;-52
2022/02/19 09:22:20;;;;;;;4.28;2.75;;;;;;;10.78;65.42;101108.22;5029430;27;102004;-52
2022/02/19 09:24:47;;;;;;;3.20;2.47;;;;;;;10.80;65.43;101113.38;5043595;27;102583;-52
2022/02/19 09:27:13;;;;;;;4.25;2.50;;;;;;;10.78;65.17;101108.22;5049038;27;103524;-52
2022/02/19 09:29:41;;;;;;;4.43;2.05;;;;;;;10.79;64.87;101112.56;5027494;27;103989;-52
2022/02/19 09:32:08;;;;;;;5.63;2.33;;;;;;;10.79;65.23;101098.97;5046338;27;103015;-52
2022/02/19 09:34:34;;;;;;;7.82;2.63;;;;;;;10.79;64.56;101101.69;5054170;27;102472;-52
2022/02/19 09:37:01;;;;;;;2.78;2.00;;;;;;;10.79;64.83;101088.06;5058012;27;102649;-52
2022/02/19 09:39:27;;;;;;;6.20;2.22;;;;;;;10.79;65.04;101090.78;5060567;27;104025;-52
2022/02/19 09:41:58;;;;;;;15.60;2.67;;;;;;;10.78;64.50;101089.16;5044231;27;102227;-52
2022/02/19 09:44:25;;;;;;;14.65;2.42;;;;;;;10.77;64.02;101084.78;5048969;27;102656;-52
2022/02/19 09:46:55;;;;;;;8.80;2.35;;;;;;;10.77;64.01;101079.31;5045204;27;102596;-52
2022/02/19 09:49:22;;;;;;;7.40;2.30;;;;;;;10.77;64.12;101071.16;5026387;27;103863;-52
2022/02/19 09:51:49;;;;;;;9.63;2.53;;;;;;;10.77;64.31;101073.88;5041747;27;102221;-52
2022/02/19 09:54:15;;;;;;;6.63;2.70;;;;;;;10.78;63.84;101061.09;5048445;27;102204;-51
2022/02/19 09:56:42;;;;;;;5.80;2.33;;;;;;;10.78;63.88;101063.81;5047994;27;102642;-52
2022/02/19 09:59:12;;;;;;;8.50;2.80;;;;;;;10.78;64.45;101061.94;5047811;27;104039;-52
2022/02/19 10:01:41;;;;;;;5.05;2.28;;;;;;;10.80;63.86;101062.47;5058451;27;102631;-52
2022/02/19 10:04:08;;;;;;;;;;;;;;;10.79;64.50;101055.41;5036820;27;102525;-52
2022/02/19 10:06:37;;;;;;;6.20;2.13;;;;;;;10.80;64.12;101050.75;5045507;27;102291;-51
2022/02/19 10:09:13;;;;;;;8.43;2.33;;;;;;;10.80;64.46;101037.97;5042897;27;105145;-52
2022/02/19 10:11:41;;;;;;;3.67;2.22;;;;;;;10.80;64.52;101048.84;5036934;27;102676;-54
2022/02/19 10:14:24;;;;;;;7.15;2.17;;;;;;;10.80;64.17;101029.81;5028222;27;102570;-52
2022/02/19 10:17:07;;;;;;;5.68;2.47;;;;;;;10.79;64.25;101016.47;5032709;27;102966;-52
2022/02/19 10:19:50;;;;;;;2.28;1.88;;;;;;;10.78;64.29;101014.81;5033736;27;104146;-51
2022/02/19 10:22:18;;;;;;;5.20;2.20;;;;;;;10.78;63.85;101004.75;5036673;27;102462;-52
2022/02/19 10:24:46;;;;;;;5.60;1.95;;;;;;;10.77;63.65;101019.44;5028556;27;102195;-52
2022/02/19 10:27:13;;;;;;;6.65;2.53;;;;;;;10.77;63.88;101014.00;5039428;27;102531;-53
2022/02/19 10:29:51;;;;;;;3.38;1.95;;;;;;;10.77;64.22;101014.00;5047294;27;103892;-52
2022/02/19 10:32:17;;;;;;;3.20;1.77;;;;;;;10.76;63.80;101020.53;5049344;27;102247;-52
2022/02/19 10:35:01;;;;;;;4.15;2.13;;;;;;;10.76;64.46;101006.91;5019083;27;102684;-52
2022/02/19 10:37:28;;;;;;;4.63;2.13;;;;;;;10.76;64.48;101009.63;5050886;27;104266;-52
2022/02/19 10:39:56;;;;;;;4.82;2.33;;;;;;;10.76;64.04;101017.81;5051978;27;103923;-52
2022/02/19 10:42:35;;;;;;;3.38;2.28;;;;;;;10.77;64.44;101041.22;5042365;27;102491;-51
2022/02/19 10:45:10;;;;;;;9.63;2.50;;;;;;;10.71;61.56;101017.78;5023860;27;102407;-55
2022/02/19 10:47:36;;;;;;;3.05;1.80;;;;;;;10.68;63.34;101018.31;5042354;27;102245;-52
2022/02/19 10:50:06;;;;;;;6.65;2.13;;;;;;;10.71;64.50;101009.63;5036710;27;104122;-52
2022/02/19 10:52:33;;;;;;;4.35;2.53;;;;;;;10.71;63.91;101009.63;5047296;27;103513;-52
2022/02/19 10:55:05;;;;;;;4.95;1.98;;;;;;;10.73;63.99;101022.97;5050176;27;102463;-52
2022/02/19 10:57:37;;;;;;;7.18;2.22;;;;;;;10.72;63.92;101011.25;5053988;27;102228;-52
2022/02/19 11:00:11;;;;;;;3.47;2.17;;;;;;;10.72;64.26;101000.38;5049538;27;103477;-52
2022/02/19 11:02:38;;;;;;;4.13;2.28;;;;;;;10.73;64.19;101001.19;5060969;27;102546;-52
2022/02/19 11:05:08;;;;;;;4.30;2.13;;;;;;;10.72;63.98;101005.81;5049023;27;102714;-52
2022/02/19 11:07:37;;;;;;;3.97;2.65;;;;;;;10.72;63.75;101011.25;5031933;27;102935;-52
2022/02/19 11:10:05;;;;;;;3.95;2.53;;;;;;;10.73;64.07;101010.16;5020860;27;103916;-52
2022/02/19 11:12:35;;;;;;;3.78;2.47;;;;;;;10.72;63.96;101011.25;5021527;27;102821;-52
2022/02/19 11:15:03;;;;;;;4.43;2.38;;;;;;;10.72;64.16;101013.97;5023795;27;102289;-52
2022/02/19 11:17:31;;;;;;;4.90;2.33;;;;;;;10.72;64.01;101011.25;5023690;27;102948;-52
2022/02/19 11:19:59;;;;;;;3.15;2.40;;;;;;;10.72;64.31;101003.09;5029968;27;104367;-52